Time;durP1;ratioP1;P1;durP2;ratioP2;P2;SDS_P1;SDS_P2;PMS_P1;PMS_P2;Temp;Humidity;BMP_temperature;BMP_pressure;BME280_temperature;BME280_humidity;BME280_pressure;Samples;Min_cycle;Max_cycle;Signal;HPM_P1;HPM_P2
2022/08/12 00:44:42;;;;;;;11.68;4.30;;;20.80;98.10;;;;;;5028749;28;20136;-53
2022/08/12 00:47:10;;;;;;;6.60;3.47;;;20.80;98.10;;;;;;5033474;28;20132;-56
2022/08/12 00:49:52;;;;;;;9.48;5.05;;;20.80;98.10;;;;;;5013089;28;20060;-57
2022/08/12 00:55:01;;;;;;;10.48;4.57;;;20.80;98.00;;;;;;4297467;23;20107;-56
2022/08/12 00:57:28;;;;;;;9.95;5.47;;;20.60;98.00;;;;;;5037714;28;20140;-56
2022/08/12 00:59:56;;;;;;;10.05;5.30;;;20.50;98.20;;;;;;5028552;28;20565;-56
2022/08/12 01:02:24;;;;;;;12.00;5.10;;;20.50;98.70;;;;;;5026275;28;20091;-55
2022/08/12 01:13:15;;;;;;;11.02;7.65;;;20.10;99.90;;;;;;5027086;28;20077;-57
2022/08/12 01:15:50;;;;;;;12.27;5.70;;;20.10;99.90;;;;;;5027037;28;20064;-57
2022/08/12 01:18:18;;;;;;;16.05;6.32;;;20.10;99.90;;;;;;5027514;28;20113;-56
2022/08/12 01:20:52;;;;;;;12.85;6.43;;;20.20;99.90;;;;;;5028273;28;20041;-56
2022/08/12 01:23:37;;;;;;;14.05;7.45;;;20.30;99.90;;;;;;5026317;28;20084;-57
2022/08/12 01:26:05;;;;;;;10.82;6.15;;;20.30;99.90;;;;;;5008361;28;20504;-56
2022/08/12 01:28:33;;;;;;;11.35;6.28;;;20.20;99.70;;;;;;5025321;28;20046;-57
2022/08/12 01:31:04;;;;;;;10.90;5.60;;;20.10;99.90;;;;;;5027986;28;20431;-56
2022/08/12 01:33:38;;;;;;;12.25;6.15;;;20.00;99.90;;;;;;5009900;28;20423;-54
2022/08/12 01:36:08;;;;;;;16.88;5.63;;;20.00;99.90;;;;;;5028257;28;20050;-56
2022/08/12 01:38:35;;;;;;;16.00;4.70;;;20.00;99.90;;;;;;5027648;28;20343;-63
2022/08/12 01:41:02;;;;;;;8.88;4.10;;;19.90;99.90;;;;;;5027757;28;20049;-55
2022/08/12 01:43:29;;;;;;;8.70;4.50;;;19.90;99.90;;;;;;5009719;28;20053;-56
2022/08/12 01:46:05;;;;;;;10.82;4.55;;;19.80;99.90;;;;;;5027827;28;20057;-55
2022/08/12 01:49:03;;;;;;;8.73;4.22;;;19.70;99.90;;;;;;5027156;28;20407;-55
2022/08/12 01:51:39;;;;;;;9.60;5.55;;;19.70;99.90;;;;;;5027749;28;20077;-53
2022/08/12 01:54:26;;;;;;;5.40;4.20;;;19.50;99.90;;;;;;5026705;28;20484;-56
2022/08/12 01:57:27;;;;;;;9.02;4.72;;;19.50;99.90;;;;;;5023191;28;20116;-57
2022/08/12 02:00:17;;;;;;;7.47;4.15;;;19.60;99.90;;;;;;5027289;28;20051;-57
2022/08/12 02:02:51;;;;;;;14.98;4.28;;;19.70;99.90;;;;;;5027450;28;20145;-57
2022/08/12 02:11:55;;;;;;;8.13;4.40;;;19.60;99.90;;;;;;5020163;28;20085;-53
2022/08/12 02:14:50;;;;;;;7.82;3.47;;;19.60;99.90;;;;;;5010175;28;20063;-51
2022/08/12 02:17:27;;;;;;;9.00;4.10;;;19.60;99.90;;;;;;5007437;28;20073;-55
2022/08/12 02:20:37;;;;;;;17.02;4.10;;;19.40;99.90;;;;;;5028578;28;20053;-54
2022/08/12 02:23:20;;;;;;;10.25;4.13;;;19.50;99.90;;;;;;5010566;28;20141;-51
2022/08/12 02:25:47;;;;;;;13.77;4.50;;;19.40;99.90;;;;;;5013067;28;20072;-54
2022/08/12 02:28:14;;;;;;;7.20;4.15;;;19.40;99.90;;;;;;5013176;28;20045;-55
2022/08/12 02:30:41;;;;;;;5.40;3.95;;;19.30;99.90;;;;;;5012902;28;20081;-55
2022/08/12 02:33:08;;;;;;;10.32;4.50;;;19.20;99.90;;;;;;5011169;28;20054;-54
2022/08/12 02:35:35;;;;;;;17.55;5.70;;;19.20;99.90;;;;;;5026626;28;20077;-52
2022/08/12 02:38:07;;;;;;;11.38;4.57;;;19.20;99.90;;;;;;5031024;28;20129;-54
2022/08/12 02:40:36;;;;;;;8.50;4.50;;;19.20;99.90;;;;;;5029992;28;20049;-56
2022/08/12 02:43:06;;;;;;;6.55;4.90;;;19.20;99.90;;;;;;5030758;28;20128;-54
2022/08/12 02:45:47;;;;;;;7.15;4.55;;;19.30;99.90;;;;;;5012641;28;20092;-56
2022/08/12 02:48:23;;;;;;;12.52;4.82;;;19.30;99.90;;;;;;5025744;28;20050;-56
2022/08/12 02:50:51;;;;;;;13.65;4.95;;;19.30;99.90;;;;;;5024477;28;20140;-56
2022/08/12 02:53:18;;;;;;;7.45;3.60;;;19.20;99.90;;;;;;5030427;28;20092;-53
2022/08/12 02:55:45;;;;;;;10.75;4.28;;;19.20;99.90;;;;;;5029649;28;20045;-55
2022/08/12 02:58:12;;;;;;;10.48;4.93;;;19.20;99.90;;;;;;5030562;28;20080;-57
2022/08/12 03:00:41;;;;;;;16.00;3.70;;;19.20;99.90;;;;;;5012753;28;20056;-56
2022/08/12 03:03:09;;;;;;;10.35;5.38;;;19.20;99.90;;;;;;5030469;28;20239;-55
2022/08/12 03:05:47;;;;;;;7.88;4.15;;;19.20;99.90;;;;;;5030043;28;20121;-55
2022/08/12 03:08:17;;;;;;;8.93;5.10;;;19.20;99.90;;;;;;5012855;28;20105;-56
2022/08/12 03:11:26;;;;;;;8.57;4.50;;;19.20;99.90;;;;;;5024833;28;20122;-56
2022/08/12 03:13:59;;;;;;;6.00;4.35;;;19.00;99.90;;;;;;5030030;28;20041;-56
2022/08/12 03:16:31;;;;;;;7.90;4.00;;;18.90;99.90;;;;;;5029936;28;20541;-57
2022/08/12 03:18:59;;;;;;;9.32;4.80;;;18.70;99.90;;;;;;5030177;28;20053;-56
2022/08/12 03:21:26;;;;;;;7.82;4.72;;;18.60;99.90;;;;;;5029464;28;20818;-55
2022/08/12 03:24:13;;;;;;;7.95;4.75;;;18.60;99.90;;;;;;5029916;28;20130;-54
2022/08/12 03:26:39;;;;;;;7.35;4.45;;;18.60;99.90;;;;;;5011248;28;20041;-55
2022/08/12 03:29:06;;;;;;;8.45;4.13;;;18.60;99.90;;;;;;5012565;28;20049;-55
2022/08/12 03:31:33;;;;;;;7.90;4.40;;;18.60;99.90;;;;;;5029575;28;20100;-54
2022/08/12 03:34:08;;;;;;;16.85;5.35;;;18.60;99.90;;;;;;5029965;28;20057;-56
2022/08/12 03:36:36;;;;;;;8.93;5.43;;;18.70;99.90;;;;;;5029514;28;20455;-54
2022/08/12 03:42:24;;;;;;;7.80;4.22;;;18.90;99.90;;;;;;5028794;28;20653;-56
2022/08/12 04:02:14;;;;;;;6.43;4.20;;;18.70;99.90;;;;;;4986917;28;20078;-53
2022/08/12 04:04:44;;;;;;;5.88;4.15;;;18.80;99.90;;;;;;4988049;28;20077;-52
2022/08/12 04:07:11;;;;;;;11.80;4.53;;;18.80;99.90;;;;;;4989512;28;20081;-55
2022/08/12 04:09:41;;;;;;;7.40;4.70;;;18.70;99.90;;;;;;4989806;28;20141;-55
2022/08/12 04:14:58;;;;;;;6.85;4.10;;;18.60;99.90;;;;;;4989814;28;20050;-55
2022/08/12 04:17:26;;;;;;;9.57;3.97;;;18.40;99.90;;;;;;4989854;28;20141;-55
2022/08/12 04:19:57;;;;;;;7.28;3.88;;;18.40;99.90;;;;;;4989908;28;20379;-56
2022/08/12 04:22:28;;;;;;;5.90;4.05;;;18.30;99.90;;;;;;4989724;28;20050;-54
2022/08/12 04:25:01;;;;;;;10.20;4.63;;;18.30;99.90;;;;;;4989033;28;20049;-55
2022/08/12 04:27:30;;;;;;;14.57;4.65;;;18.30;99.90;;;;;;4988448;28;20146;-54
2022/08/12 04:29:57;;;;;;;10.65;4.18;;;18.40;99.90;;;;;;4988586;28;20121;-55
2022/08/12 04:32:44;;;;;;;13.32;3.97;;;18.30;99.90;;;;;;5001624;28;20205;-56
2022/08/12 04:35:12;;;;;;;6.25;4.28;;;18.30;99.90;;;;;;5004047;28;20042;-57
2022/08/12 04:37:39;;;;;;;9.98;4.00;;;18.20;99.90;;;;;;5004539;28;20077;-54
2022/08/12 04:40:28;;;;;;;10.73;4.20;;;18.20;99.90;;;;;;4989142;28;20046;-56
2022/08/12 04:42:55;;;;;;;6.45;4.60;;;18.10;99.90;;;;;;4989626;28;20077;-53
2022/08/12 04:45:22;;;;;;;7.57;4.65;;;18.10;99.90;;;;;;4988781;28;20078;-55
2022/08/12 04:47:49;;;;;;;10.93;4.70;;;18.10;99.90;;;;;;4989693;28;20078;-56
2022/08/12 04:50:17;;;;;;;6.85;4.00;;;18.00;99.90;;;;;;4987809;28;20093;-56
2022/08/12 04:53:03;;;;;;;8.95;3.92;;;17.90;99.90;;;;;;4969786;28;20143;-56
2022/08/12 04:55:30;;;;;;;7.35;4.78;;;17.90;99.90;;;;;;5012716;28;20084;-57
2022/08/12 04:57:56;;;;;;;6.38;4.15;;;17.90;99.90;;;;;;5008712;28;20049;-54
2022/08/12 05:00:23;;;;;;;8.70;3.90;;;17.90;99.90;;;;;;5006924;28;20272;-55
2022/08/12 05:02:51;;;;;;;6.13;4.10;;;18.00;99.90;;;;;;5028504;28;20103;-56
2022/08/12 05:05:21;;;;;;;5.63;4.13;;;18.10;99.90;;;;;;5027858;28;20041;-54
2022/08/12 05:07:50;;;;;;;10.57;4.10;;;18.20;99.90;;;;;;5028379;28;20466;-55
2022/08/12 05:10:20;;;;;;;14.85;3.80;;;18.20;99.90;;;;;;5027833;28;20046;-55
2022/08/12 05:12:59;;;;;;;12.15;4.65;;;18.20;99.90;;;;;;5028342;28;20053;-55
2022/08/12 05:15:26;;;;;;;4.32;3.58;;;18.20;99.90;;;;;;5010119;28;20492;-55
2022/08/12 05:17:56;;;;;;;4.93;3.90;;;18.30;99.90;;;;;;5026962;28;20065;-53
2022/08/12 05:20:27;;;;;;;12.00;4.32;;;18.20;99.90;;;;;;5027995;28;20041;-54
2022/08/12 05:23:14;;;;;;;5.03;3.55;;;18.20;99.90;;;;;;5028397;28;20055;-52
2022/08/12 05:25:41;;;;;;;9.52;4.53;;;18.20;99.90;;;;;;5027872;28;20092;-54
2022/08/12 05:28:09;;;;;;;6.00;4.50;;;18.20;99.90;;;;;;5028104;28;20554;-55
2022/08/12 05:30:36;;;;;;;15.93;4.40;;;18.20;99.90;;;;;;5027785;28;20053;-55
2022/08/12 05:33:06;;;;;;;5.88;3.70;;;18.20;99.90;;;;;;5028164;28;20136;-56
2022/08/12 05:35:41;;;;;;;5.32;3.70;;;18.20;99.90;;;;;;5026855;28;20045;-55
2022/08/12 05:40:55;;;;;;;8.20;4.28;;;18.30;99.90;;;;;;5027687;28;20049;-55
2022/08/12 05:43:21;;;;;;;11.75;4.00;;;18.30;99.90;;;;;;5028376;28;20064;-55
2022/08/12 05:45:48;;;;;;;8.18;4.55;;;18.30;99.90;;;;;;5027776;28;20080;-54
2022/08/12 05:48:15;;;;;;;11.07;5.30;;;18.40;99.90;;;;;;5028077;28;20042;-56
2022/08/12 05:50:43;;;;;;;20.52;5.18;;;18.40;99.90;;;;;;5030505;28;20437;-56
2022/08/12 05:53:10;;;;;;;16.30;4.93;;;18.50;99.90;;;;;;5031807;28;20049;-56
2022/08/12 05:55:37;;;;;;;12.20;4.22;;;18.60;99.90;;;;;;5030341;28;20136;-55
2022/08/12 05:58:06;;;;;;;13.57;5.38;;;18.60;99.90;;;;;;5027347;28;20104;-53
2022/08/12 06:00:33;;;;;;;9.32;6.32;;;18.60;99.90;;;;;;5031924;28;20045;-54
2022/08/12 06:03:01;;;;;;;11.65;4.25;;;18.60;99.90;;;;;;5030585;28;20053;-56
2022/08/12 06:05:35;;;;;;;14.25;4.57;;;18.60;99.90;;;;;;5031660;28;20052;-56
2022/08/12 06:08:20;;;;;;;11.15;4.60;;;18.60;99.90;;;;;;5031152;28;20121;-56
2022/08/12 06:10:48;;;;;;;6.72;4.68;;;18.70;99.90;;;;;;5032029;28;20085;-56
2022/08/12 06:13:16;;;;;;;10.18;4.13;;;18.70;99.90;;;;;;5031307;28;20049;-55
2022/08/12 06:16:03;;;;;;;10.30;4.28;;;18.90;99.90;;;;;;5031441;28;20064;-58
2022/08/12 06:18:30;;;;;;;7.43;4.88;;;18.80;99.90;;;;;;5031028;28;20080;-55
2022/08/12 06:20:58;;;;;;;12.25;4.85;;;18.90;99.90;;;;;;5014054;28;20041;-57
2022/08/12 06:23:28;;;;;;;10.85;5.20;;;19.00;99.90;;;;;;5030967;28;20476;-53
2022/08/12 06:25:55;;;;;;;7.53;4.85;;;19.10;99.90;;;;;;5031203;28;20431;-53
2022/08/12 06:28:22;;;;;;;13.32;4.88;;;19.20;99.90;;;;;;5030713;28;20077;-56
2022/08/12 06:30:49;;;;;;;9.13;5.13;;;19.30;99.90;;;;;;5031315;28;20077;-56
2022/08/12 06:33:36;;;;;;;17.50;5.78;;;19.40;99.90;;;;;;5030812;28;20095;-57
2022/08/12 06:36:23;;;;;;;14.05;6.07;;;19.40;99.90;;;;;;5011435;28;20060;-57
2022/08/12 06:38:58;;;;;;;12.48;6.15;;;19.60;99.90;;;;;;5029206;28;20045;-58
2022/08/12 06:44:34;;;;;;;13.15;4.93;;;19.70;99.90;;;;;;5030719;28;20046;-59
2022/08/12 06:47:01;;;;;;;13.50;5.57;;;19.80;99.90;;;;;;5031113;28;20073;-54
2022/08/12 06:49:33;;;;;;;12.15;6.50;;;19.90;99.90;;;;;;5030546;28;20041;-53
2022/08/12 06:52:00;;;;;;;13.80;7.00;;;20.10;99.90;;;;;;5030800;28;20107;-56
2022/08/12 06:54:27;;;;;;;8.93;5.10;;;20.20;99.90;;;;;;4678304;28;9999959;-55
2022/08/12 06:56:58;;;;;;;12.45;5.70;;;20.30;99.90;;;;;;5009925;28;20045;-56
2022/08/12 06:59:31;;;;;;;;;;;20.40;99.90;;;;;;5027289;28;20131;-53
2022/08/12 07:01:58;;;;;;;6.18;3.88;;;20.50;99.90;;;;;;5026046;28;20016;-57
2022/08/12 07:04:24;;;;;;;11.23;4.97;;;20.60;99.90;;;;;;5026941;28;20392;-54
2022/08/12 07:07:07;;;;;;;19.40;5.63;;;20.70;99.90;;;;;;5026595;28;20053;-55
2022/08/12 07:09:35;;;;;;;12.45;5.03;;;20.80;99.90;;;;;;5025017;28;20107;-55
2022/08/12 07:12:21;;;;;;;15.90;4.65;;;20.90;99.90;;;;;;5027615;28;20053;-54
2022/08/12 07:14:53;;;;;;;13.80;5.25;;;21.00;99.90;;;;;;5027029;28;20264;-55
2022/08/12 07:17:20;;;;;;;15.10;5.03;;;21.10;99.90;;;;;;5027665;28;20111;-53
2022/08/12 07:19:48;;;;;;;14.32;4.68;;;21.20;99.90;;;;;;5026588;28;20132;-56
2022/08/12 07:22:15;;;;;;;16.58;4.72;;;21.30;99.90;;;;;;5025214;28;20081;-57
2022/08/12 07:25:29;;;;;;;18.88;6.30;;;21.40;99.90;;;;;;5026915;28;20053;-54
2022/08/12 07:27:29;;;;;;;12.48;6.32;;;21.50;99.90;;;;;;5027335;28;20393;-54
2022/08/12 07:29:56;;;;;;;17.63;4.85;;;21.50;99.90;;;;;;5029895;28;20103;-52
2022/08/12 07:32:30;;;;;;;19.95;5.38;;;21.60;99.90;;;;;;5030142;28;20520;-54
2022/08/12 07:34:57;;;;;;;12.95;4.95;;;21.70;99.90;;;;;;5029646;28;20192;-54
2022/08/12 07:37:24;;;;;;;14.80;5.45;;;21.70;99.90;;;;;;5029893;28;20136;-56
2022/08/12 07:39:51;;;;;;;11.50;4.68;;;21.80;99.90;;;;;;5027877;28;20344;-51
2022/08/12 07:42:27;;;;;;;14.93;5.43;;;21.90;99.90;;;;;;5027045;28;20446;-55
2022/08/12 07:44:54;;;;;;;14.20;5.50;;;22.00;99.90;;;;;;5026477;28;20041;-53
2022/08/12 07:47:21;;;;;;;21.75;6.00;;;22.10;99.90;;;;;;5026938;28;20049;-54
2022/08/12 07:49:48;;;;;;;12.50;5.43;;;22.10;99.90;;;;;;5024669;28;20042;-55
2022/08/12 07:52:33;;;;;;;14.75;5.10;;;22.20;99.90;;;;;;5015551;28;20050;-56
2022/08/12 07:55:00;;;;;;;16.42;5.25;;;22.30;99.90;;;;;;5025597;28;20121;-55
2022/08/12 07:57:27;;;;;;;13.55;4.95;;;22.30;99.90;;;;;;5026282;28;20061;-55
2022/08/12 07:59:54;;;;;;;23.08;5.53;;;22.40;99.90;;;;;;5025779;28;20041;-54
2022/08/12 08:02:22;;;;;;;14.45;5.30;;;22.50;99.90;;;;;;5036602;28;20089;-56
2022/08/12 08:04:55;;;;;;;15.88;5.95;;;22.60;99.90;;;;;;5024774;28;20081;-56
2022/08/12 08:07:23;;;;;;;14.48;4.68;;;22.70;99.90;;;;;;5024931;28;20053;-53
2022/08/12 08:09:52;;;;;;;15.45;6.22;;;22.80;99.90;;;;;;5025536;28;20049;-56
2022/08/12 08:15:14;;;;;;;20.10;5.85;;;22.90;99.90;;;;;;5024900;28;20049;-56
2022/08/12 08:18:01;;;;;;;30.17;7.05;;;23.00;99.90;;;;;;5019198;28;20045;-55
2022/08/12 08:20:40;;;;;;;13.40;5.15;;;23.10;99.90;;;;;;5007482;28;20608;-54
2022/08/12 08:23:13;;;;;;;20.48;4.78;;;23.20;99.90;;;;;;5021551;28;20073;-56
2022/08/12 08:25:40;;;;;;;19.02;6.53;;;23.20;99.90;;;;;;5007812;28;20376;-56
2022/08/12 08:28:12;;;;;;;20.27;4.68;;;23.30;99.90;;;;;;5025232;28;20077;-55
2022/08/12 08:30:44;;;;;;;13.70;5.18;;;23.40;99.90;;;;;;5025241;28;20045;-56
2022/08/12 08:33:12;;;;;;;11.30;5.18;;;23.50;99.70;;;;;;5025263;28;20049;-57
2022/08/12 08:35:59;;;;;;;9.55;4.47;;;23.50;99.60;;;;;;5025152;28;20081;-55
2022/08/12 08:38:28;;;;;;;16.25;4.20;;;23.60;99.60;;;;;;5018726;28;20148;-55
2022/08/12 08:44:10;;;;;;;14.20;4.47;;;23.80;99.10;;;;;;5012041;28;20532;-57
2022/08/12 08:46:38;;;;;;;18.73;5.00;;;23.90;98.60;;;;;;5023666;28;20061;-55
2022/08/12 08:49:05;;;;;;;19.65;5.32;;;24.00;98.30;;;;;;5022073;28;20045;-54
2022/08/12 08:51:33;;;;;;;14.32;4.60;;;24.10;97.90;;;;;;5022767;28;20180;-54
2022/08/12 08:53:59;;;;;;;18.60;4.40;;;24.20;97.80;;;;;;5018578;28;20131;-56
2022/08/12 08:56:29;;;;;;;9.68;3.70;;;24.30;97.90;;;;;;5005755;28;20197;-54
2022/08/12 08:58:56;;;;;;;14.38;4.13;;;24.40;97.60;;;;;;5025325;28;20706;-56
2022/08/12 09:01:24;;;;;;;9.52;3.85;;;24.50;97.50;;;;;;5007381;28;20097;-55
2022/08/12 09:03:51;;;;;;;10.80;3.58;;;24.60;97.10;;;;;;5006250;28;20057;-55
2022/08/12 09:06:40;;;;;;;8.32;2.97;;;24.60;96.70;;;;;;5010040;28;20116;-54
2022/08/12 09:09:19;;;;;;;14.35;4.53;;;24.70;96.10;;;;;;5024225;28;20100;-54
2022/08/12 09:14:42;;;;;;;7.25;3.45;;;24.90;95.70;;;;;;5023883;28;20128;-55
2022/08/12 09:17:19;;;;;;;10.45;3.88;;;25.00;95.20;;;;;;5024588;28;20063;-54
2022/08/12 09:19:48;;;;;;;12.85;3.55;;;25.20;94.60;;;;;;5023423;28;20045;-54
2022/08/12 09:22:34;;;;;;;21.70;3.55;;;25.30;94.30;;;;;;5024233;28;20072;-55
2022/08/12 09:25:05;;;;;;;19.17;4.03;;;25.40;93.90;;;;;;5023735;28;20041;-56
2022/08/12 09:27:35;;;;;;;6.80;2.92;;;25.50;93.70;;;;;;5023844;28;20493;-53
2022/08/12 09:30:23;;;;;;;10.63;3.97;;;25.60;93.40;;;;;;5007383;28;20057;-56
2022/08/12 09:33:08;;;;;;;9.48;2.95;;;25.70;93.00;;;;;;5024182;28;20387;-57
2022/08/12 09:35:56;;;;;;;10.63;3.33;;;25.90;92.30;;;;;;4993456;28;20046;-51
2022/08/12 09:38:32;;;;;;;5.97;2.88;;;26.00;92.20;;;;;;5010811;28;20500;-56
2022/08/12 09:41:02;;;;;;;9.80;3.10;;;26.00;91.90;;;;;;5012850;28;20800;-56
2022/08/12 09:46:55;;;;;;;11.18;3.42;;;26.40;90.50;;;;;;5024614;28;20411;-57
2022/08/12 09:49:23;;;;;;;24.45;3.55;;;26.50;89.20;;;;;;5006355;28;20065;-54
2022/08/12 09:51:53;;;;;;;14.35;3.38;;;26.70;88.20;;;;;;5023870;28;20092;-57
2022/08/12 09:54:24;;;;;;;10.18;3.53;;;27.10;87.10;;;;;;5023230;28;20045;-55
2022/08/12 09:57:06;;;;;;;12.18;3.60;;;27.60;85.10;;;;;;5024957;28;20045;-56
2022/08/12 09:59:55;;;;;;;15.70;2.92;;;28.00;82.00;;;;;;5024199;28;20419;-51
2022/08/12 10:03:02;;;;;;;8.88;2.78;;;28.30;79.40;;;;;;5009657;28;20802;-54
2022/08/12 10:05:35;;;;;;;19.95;3.97;;;28.70;72.00;;;;;;5023846;28;20096;-57
2022/08/12 10:08:23;;;;;;;12.85;2.65;;;29.00;74.20;;;;;;5004468;28;20058;-56
2022/08/12 10:13:47;;;;;;;12.93;2.50;;;29.60;71.40;;;;;;5016653;28;20054;-55
2022/08/12 10:16:27;;;;;;;15.43;3.20;;;29.70;69.30;;;;;;5023126;28;20094;-57
2022/08/12 10:18:58;;;;;;;8.82;2.53;;;29.80;68.20;;;;;;5024067;28;20091;-53
2022/08/12 10:21:30;;;;;;;12.50;3.42;;;30.00;64.90;;;;;;5023592;28;20049;-58
2022/08/12 10:24:09;;;;;;;13.98;2.60;;;30.20;66.20;;;;;;5023984;28;20126;-56
2022/08/12 10:29:40;;;;;;;11.30;3.25;;;30.50;64.20;;;;;;5024042;28;20562;-57
2022/08/12 10:32:27;;;;;;;13.45;3.00;;;30.60;63.10;;;;;;5023600;28;20678;-58
2022/08/12 10:35:14;;;;;;;13.63;3.10;;;30.80;62.90;;;;;;5023995;28;20064;-63
2022/08/12 10:37:41;;;;;;;16.00;3.95;;;31.00;62.50;;;;;;5027728;28;20099;-57
2022/08/12 10:40:30;;;;;;;12.02;2.15;;;31.10;61.90;;;;;;5026623;28;20053;-57
2022/08/12 10:45:47;;;;;;;7.75;2.75;;;30.80;58.60;;;;;;5027327;28;20214;-57
2022/08/12 10:48:16;;;;;;;10.52;2.25;;;30.30;59.70;;;;;;5027641;28;20087;-60
2022/08/12 10:50:54;;;;;;;15.57;3.65;;;30.20;58.90;;;;;;5026597;28;20046;-59
2022/08/12 10:53:32;;;;;;;11.25;2.42;;;30.10;59.40;;;;;;5018389;28;20057;-54
2022/08/12 10:56:14;;;;;;;10.18;3.25;;;30.00;55.60;;;;;;5026834;28;20081;-52
2022/08/12 10:58:41;;;;;;;13.18;2.78;;;29.80;57.70;;;;;;5016846;28;20464;-56
2022/08/12 11:01:12;;;;;;;8.30;2.92;;;29.70;59.30;;;;;;5026925;28;20042;-56
2022/08/12 11:04:04;;;;;;;31.30;4.15;;;29.60;57.90;;;;;;5017013;28;20060;-55
2022/08/12 11:06:52;;;;;;;23.85;4.28;;;29.50;57.70;;;;;;5026288;28;20523;-55
2022/08/12 11:09:40;;;;;;;11.32;2.83;;;29.50;58.00;;;;;;5026814;28;20049;-54
2022/08/12 11:12:28;;;;;;;8.82;2.58;;;29.50;58.00;;;;;;5026283;28;20511;-54
2022/08/12 11:15:16;;;;;;;8.80;2.97;;;29.50;56.90;;;;;;5026497;28;20046;-57
2022/08/12 11:17:50;;;;;;;5.88;2.50;;;29.40;55.80;;;;;;5025605;28;20054;-57
2022/08/12 11:20:21;;;;;;;9.10;2.22;;;29.40;56.10;;;;;;5025362;28;20110;-57
2022/08/12 11:22:57;;;;;;;14.05;2.58;;;29.40;56.30;;;;;;5026452;28;20070;-59
2022/08/12 11:25:25;;;;;;;9.52;2.60;;;29.50;55.60;;;;;;5026576;28;20049;-55
2022/08/12 11:28:12;;;;;;;5.38;2.58;;;29.60;54.30;;;;;;5025689;28;20506;-56
2022/08/12 11:30:40;;;;;;;6.78;2.20;;;29.50;53.90;;;;;;5026395;28;20053;-57
2022/08/12 11:33:07;;;;;;;7.90;2.17;;;29.50;53.40;;;;;;5026195;28;20049;-56
2022/08/12 11:35:40;;;;;;;6.68;2.15;;;29.50;51.90;;;;;;5026360;28;20600;-54
2022/08/12 11:38:11;;;;;;;10.80;2.40;;;29.40;52.70;;;;;;5025962;28;20049;-55
2022/08/12 11:40:38;;;;;;;18.75;2.78;;;29.40;51.20;;;;;;5025967;28;20131;-56
2022/08/12 11:43:09;;;;;;;10.27;2.72;;;29.50;51.60;;;;;;5025867;28;20089;-53
2022/08/12 11:45:46;;;;;;;15.35;2.63;;;29.60;51.40;;;;;;5026259;28;20049;-56
2022/08/12 11:48:18;;;;;;;4.75;2.20;;;29.60;51.00;;;;;;5024235;28;20053;-55
2022/08/12 11:50:52;;;;;;;7.13;2.17;;;29.60;50.60;;;;;;5025893;28;20053;-54
2022/08/12 11:53:19;;;;;;;11.38;2.38;;;29.60;51.00;;;;;;5025769;28;20077;-56
2022/08/12 11:56:06;;;;;;;3.85;2.42;;;29.70;50.00;;;;;;5025930;28;20570;-56
2022/08/12 11:58:37;;;;;;;5.28;2.10;;;29.70;49.70;;;;;;5026071;28;20057;-54
2022/08/12 12:01:23;;;;;;;7.78;2.17;;;29.80;49.40;;;;;;5026270;28;20061;-57
2022/08/12 12:04:10;;;;;;;4.20;2.15;;;29.80;48.20;;;;;;5024697;28;20545;-56
2022/08/12 12:06:37;;;;;;;5.68;2.72;;;29.80;48.40;;;;;;5026213;28;20376;-57
2022/08/12 12:09:05;;;;;;;12.15;2.75;;;29.90;48.30;;;;;;5025789;28;20146;-56
2022/08/12 12:11:34;;;;;;;6.60;2.30;;;30.10;47.20;;;;;;5025228;28;20076;-56
2022/08/12 12:14:15;;;;;;;12.32;2.65;;;30.00;47.90;;;;;;5025444;28;20052;-57
2022/08/12 12:16:43;;;;;;;7.13;2.30;;;30.00;47.80;;;;;;5025369;28;20132;-58
2022/08/12 12:19:16;;;;;;;;;;;30.10;48.30;;;;;;5026119;28;20112;-56
2022/08/12 12:21:45;;;;;;;10.13;2.75;;;30.00;46.00;;;;;;5008338;28;19964;-57
2022/08/12 12:24:18;;;;;;;11.63;2.45;;;30.20;48.30;;;;;;5024823;28;20055;-57
2022/08/12 12:26:52;;;;;;;8.55;1.67;;;30.30;47.80;;;;;;5025382;28;20053;-58
2022/08/12 12:29:30;;;;;;;7.72;2.67;;;30.30;46.90;;;;;;5025201;28;20049;-59
2022/08/12 12:32:18;;;;;;;7.95;1.95;;;30.30;47.20;;;;;;5025709;28;20699;-56
2022/08/12 12:34:55;;;;;;;6.55;2.10;;;30.40;45.10;;;;;;5024587;28;20056;-57
2022/08/12 12:38:03;;;;;;;6.65;2.17;;;30.40;45.50;;;;;;5025232;28;20135;-57
2022/08/12 12:40:40;;;;;;;6.10;2.22;;;30.40;43.50;;;;;;5024130;28;20158;-57
2022/08/12 12:43:09;;;;;;;6.13;2.35;;;30.40;45.70;;;;;;5025270;28;20049;-58
2022/08/12 12:45:38;;;;;;;7.20;1.50;;;30.50;45.70;;;;;;5024896;28;20419;-56
2022/08/12 12:48:13;;;;;;;8.63;2.28;;;30.50;45.90;;;;;;5025272;28;20084;-56
2022/08/12 12:50:42;;;;;;;6.57;2.00;;;30.50;45.30;;;;;;5023322;28;20627;-57
2022/08/12 12:53:20;;;;;;;7.07;2.60;;;30.60;45.80;;;;;;5024958;28;20449;-57
2022/08/12 12:56:19;;;;;;;7.57;2.17;;;30.60;46.00;;;;;;5024172;28;20144;-59
2022/08/12 12:59:00;;;;;;;8.52;2.30;;;30.70;46.10;;;;;;5003888;28;20344;-56
2022/08/12 13:01:26;;;;;;;4.88;2.25;;;30.80;45.60;;;;;;5021320;28;20224;-57
2022/08/12 13:03:59;;;;;;;;;;;30.90;44.30;;;;;;5022682;28;20511;-56
2022/08/12 13:06:28;;;;;;;8.35;2.70;;;30.90;43.70;;;;;;5035657;28;19925;-59
2022/08/12 13:08:57;;;;;;;11.18;2.15;;;30.90;45.70;;;;;;5025795;28;20543;-55
2022/08/12 13:11:30;;;;;;;7.90;2.22;;;30.90;44.80;;;;;;5024828;28;20053;-57
2022/08/12 13:14:07;;;;;;;3.78;1.83;;;30.80;45.00;;;;;;5008775;28;20064;-56
2022/08/12 13:16:54;;;;;;;3.20;1.55;;;30.90;45.40;;;;;;5024014;28;20080;-56
2022/08/12 13:19:22;;;;;;;5.75;2.13;;;31.20;45.10;;;;;;5024889;28;20131;-56
2022/08/12 13:22:16;;;;;;;9.90;2.22;;;31.10;44.70;;;;;;5024090;28;20385;-56
2022/08/12 13:24:46;;;;;;;12.43;2.53;;;31.00;45.00;;;;;;5024553;28;20414;-55
2022/08/12 13:27:28;;;;;;;6.18;2.30;;;31.20;45.00;;;;;;5015593;28;20050;-60
2022/08/12 13:30:08;;;;;;;4.97;2.15;;;31.20;44.60;;;;;;5024821;28;20057;-57
2022/08/12 13:32:44;;;;;;;15.00;1.90;;;31.30;43.30;;;;;;5024148;28;20102;-57
2022/08/12 13:35:29;;;;;;;5.90;1.67;;;31.30;43.70;;;;;;5005135;28;20050;-59
2022/08/12 13:38:16;;;;;;;;;;;31.20;43.30;;;;;;5024912;28;20077;-56
2022/08/12 13:41:04;;;;;;;4.57;1.75;;;31.20;42.10;;;;;;5027817;28;20012;-58
2022/08/12 13:43:37;;;;;;;4.57;1.95;;;31.40;44.00;;;;;;5027814;28;20052;-57
2022/08/12 13:46:08;;;;;;;6.47;1.77;;;31.40;44.00;;;;;;5027252;28;20444;-56
2022/08/12 13:48:39;;;;;;;6.60;1.67;;;31.40;42.40;;;;;;5026745;28;20490;-58
2022/08/12 13:51:11;;;;;;;3.22;2.03;;;31.40;43.00;;;;;;5026265;28;20516;-59
2022/08/12 13:53:39;;;;;;;9.40;2.17;;;31.40;44.10;;;;;;5027275;28;20505;-56
2022/08/12 13:56:27;;;;;;;7.97;2.22;;;31.40;43.80;;;;;;5027392;28;20140;-49
2022/08/12 13:59:01;;;;;;;7.10;1.60;;;31.40;43.30;;;;;;5027619;28;20087;-56
2022/08/12 14:01:29;;;;;;;10.23;2.35;;;31.50;43.40;;;;;;5026827;28;20430;-55
2022/08/12 14:04:03;;;;;;;6.60;2.20;;;31.60;43.40;;;;;;5024406;28;20058;-57
2022/08/12 14:06:30;;;;;;;6.68;2.08;;;31.70;43.60;;;;;;5027654;28;20132;-54
2022/08/12 14:08:58;;;;;;;4.90;2.05;;;31.80;43.90;;;;;;5026702;28;20045;-57
2022/08/12 14:11:25;;;;;;;12.32;2.30;;;32.00;42.80;;;;;;5029792;28;20041;-55
2022/08/12 14:13:59;;;;;;;9.98;2.88;;;32.20;43.00;;;;;;5030935;28;20050;-55
2022/08/12 14:16:38;;;;;;;7.75;2.10;;;32.20;43.10;;;;;;5011582;28;20050;-56
2022/08/12 14:19:16;;;;;;;7.38;2.10;;;32.40;42.50;;;;;;5023209;28;20087;-56
2022/08/12 14:21:50;;;;;;;4.25;1.90;;;32.70;43.20;;;;;;5031439;28;20085;-54
2022/08/12 14:24:33;;;;;;;12.65;2.25;;;33.10;42.40;;;;;;5030545;28;20115;-55
2022/08/12 14:27:02;;;;;;;7.57;1.70;;;33.60;41.90;;;;;;5031252;28;20046;-55
2022/08/12 14:29:35;;;;;;;6.40;2.20;;;34.20;41.40;;;;;;5030829;28;20482;-55
2022/08/12 14:32:21;;;;;;;12.55;2.40;;;34.50;40.70;;;;;;5011333;28;20060;-54
2022/08/12 14:34:50;;;;;;;8.18;2.25;;;34.80;41.30;;;;;;5029295;28;20312;-57
2022/08/12 14:37:17;;;;;;;9.27;2.30;;;35.10;39.80;;;;;;5029343;28;20263;-57
2022/08/12 14:40:05;;;;;;;8.15;1.85;;;35.30;38.70;;;;;;5028760;28;20045;-58
2022/08/12 14:42:31;;;;;;;15.07;2.47;;;35.40;40.00;;;;;;5029317;28;20079;-58
2022/08/12 14:44:59;;;;;;;10.40;2.72;;;35.50;39.40;;;;;;5028774;28;20053;-58
2022/08/12 14:47:28;;;;;;;5.45;1.90;;;35.50;39.50;;;;;;5011894;28;20137;-57
2022/08/12 14:50:02;;;;;;;5.03;1.95;;;35.80;38.60;;;;;;5029118;28;20315;-57
2022/08/12 14:52:49;;;;;;;9.10;2.60;;;35.70;38.80;;;;;;5011161;28;20042;-59
2022/08/12 14:55:40;;;;;;;6.90;2.20;;;36.10;39.00;;;;;;5028934;28;20134;-57
2022/08/12 14:58:27;;;;;;;6.75;2.17;;;36.40;36.70;;;;;;5030163;28;20551;-59
2022/08/12 15:03:47;;;;;;;10.45;1.98;;;36.50;38.30;;;;;;5030299;28;20099;-58
2022/08/12 15:06:25;;;;;;;5.45;2.13;;;36.40;36.80;;;;;;5030219;28;20056;-58
2022/08/12 15:09:12;;;;;;;7.68;1.88;;;36.50;38.40;;;;;;5028990;28;20141;-58
2022/08/12 15:11:42;;;;;;;8.00;1.73;;;36.70;38.00;;;;;;5030158;28;20099;-57